createdAt,value
2022-12-31T00:00:53.749Z,94.25
2022-12-31T00:03:22.091Z,95.06
2022-12-31T00:05:50.396Z,94.86
2022-12-31T00:08:18.990Z,95.04
2022-12-31T00:10:47.104Z,94.87
2022-12-31T00:13:16.563Z,94.56
2022-12-31T00:15:46.403Z,94.91
2022-12-31T00:18:14.851Z,94.05
2022-12-31T00:20:43.133Z,94.16
2022-12-31T00:23:12.640Z,94.22
2022-12-31T00:25:40.649Z,94.09
2022-12-31T00:28:08.958Z,93.24
2022-12-31T00:30:37.123Z,92.88
2022-12-31T00:33:06.662Z,93.64
2022-12-31T00:35:36.488Z,93.94
2022-12-31T00:38:04.998Z,93.87
2022-12-31T00:40:32.930Z,94.14
2022-12-31T00:43:01.324Z,93.75
2022-12-31T00:45:29.327Z,93.78
2022-12-31T00:47:57.770Z,94.97
2022-12-31T00:50:27.130Z,94.23
2022-12-31T00:52:55.676Z,95.16
2022-12-31T00:55:23.706Z,94.54
2022-12-31T00:57:52.305Z,94.59
2022-12-31T01:00:20.266Z,93.96
2022-12-31T01:02:48.460Z,94.22
2022-12-31T01:05:16.548Z,95.23
2022-12-31T01:07:46.082Z,95.10
2022-12-31T01:10:34.117Z,95.55
2022-12-31T01:13:02.717Z,95.02
2022-12-31T01:15:34.801Z,95.21
2022-12-31T01:18:03.581Z,95.32
2022-12-31T01:20:31.618Z,95.13
2022-12-31T01:23:01.686Z,95.02
2022-12-31T01:25:29.665Z,94.47
2022-12-31T01:27:57.872Z,94.46
2022-12-31T01:30:25.907Z,94.37
2022-12-31T01:33:03.953Z,94.62
2022-12-31T02:06:31.501Z,92.61
2022-12-31T02:24:58.509Z,92.39
2022-12-31T02:27:46.004Z,92.08
2022-12-31T03:48:56.953Z,96.85
2022-12-31T06:11:07.276Z,85.77
2022-12-31T07:13:39.869Z,84.07
2022-12-31T07:28:10.878Z,84.11
2022-12-31T09:01:56.952Z,81.86
2022-12-31T22:37:44.614Z,77.84
2022-12-31T22:39:59.900Z,76.63
2022-12-31T22:42:29.126Z,77.07
2022-12-31T22:44:57.555Z,77.70
2022-12-31T22:47:25.551Z,77.17
2022-12-31T22:49:53.805Z,77.39
2022-12-31T22:52:23.099Z,76.83
2022-12-31T22:54:51.306Z,77.17
2022-12-31T22:57:20.459Z,76.82
2022-12-31T22:59:48.563Z,76.97
2022-12-31T23:02:16.471Z,76.74
2022-12-31T23:04:44.935Z,76.85
2022-12-31T23:07:12.845Z,76.08
2022-12-31T23:09:59.881Z,75.44
2022-12-31T23:12:27.828Z,75.54
2022-12-31T23:15:13.529Z,75.65
2022-12-31T23:17:59.394Z,75.66
2022-12-31T23:20:45.128Z,75.02
2022-12-31T23:23:16.139Z,75.53
2022-12-31T23:25:47.073Z,75.16
2022-12-31T23:28:17.851Z,75.82
2022-12-31T23:30:46.383Z,76.00
2022-12-31T23:33:17.368Z,76.20
2022-12-31T23:35:45.501Z,76.07
2022-12-31T23:38:14.195Z,76.29
2022-12-31T23:40:42.107Z,76.33
2022-12-31T23:43:19.099Z,77.42
2022-12-31T23:45:46.964Z,78.48
2022-12-31T23:48:14.932Z,79.36
2022-12-31T23:50:45.375Z,80.89
2022-12-31T23:53:17.257Z,81.27
2022-12-31T23:55:45.053Z,81.53
2022-12-31T23:58:14.513Z,81.38
